Time;durP1;ratioP1;P1;durP2;ratioP2;P2;SDS_P1;SDS_P2;PMS_P1;PMS_P2;Temp;Humidity;BMP_temperature;BMP_pressure;BME280_temperature;BME280_humidity;BME280_pressure;Samples;Min_cycle;Max_cycle;Signal;HPM_P1;HPM_P2
2023/07/15 00:01:18;;;;;;;;;;;21.90;99.90;;;;;;4984853;28;19954;-64
2023/07/15 00:03:46;;;;;;;;;;;21.90;99.90;;;;;;4993097;28;20067;-63
2023/07/15 00:06:15;;;;;;;;;;;21.90;99.90;;;;;;4982334;28;20039;-65
2023/07/15 00:08:43;;;;;;;;;;;21.90;99.90;;;;;;4982974;28;19959;-64
2023/07/15 00:11:13;;;;;;;;;;;21.80;99.90;;;;;;4983072;28;19952;-64
2023/07/15 00:13:41;;;;;;;;;;;21.70;99.90;;;;;;4984254;28;20393;-64
2023/07/15 00:16:09;;;;;;;;;;;21.70;99.90;;;;;;4980894;28;19960;-64
2023/07/15 00:18:37;;;;;;;;;;;21.70;99.90;;;;;;4980873;28;19967;-65
2023/07/15 00:21:10;;;;;;;;;;;21.80;99.90;;;;;;4982222;28;20495;-65
2023/07/15 00:23:40;;;;;;;;;;;21.80;99.90;;;;;;4984312;28;19958;-64
2023/07/15 00:26:08;;;;;;;;;;;21.90;99.90;;;;;;4990821;28;20412;-65
2023/07/15 00:28:36;;;;;;;;;;;21.90;99.90;;;;;;4991552;28;20473;-65
2023/07/15 00:31:11;;;;;;;;;;;21.90;99.90;;;;;;4981853;28;20014;-65
2023/07/15 00:33:40;;;;;;;;;;;21.90;99.90;;;;;;4993396;28;20052;-66
2023/07/15 00:36:07;;;;;;;;;;;21.90;99.90;;;;;;4988874;28;19952;-65
2023/07/15 00:38:35;;;;;;;;;;;21.90;99.90;;;;;;4980720;28;20449;-66
2023/07/15 00:41:06;;;;;;;;;;;21.80;99.90;;;;;;4989023;28;19960;-66
2023/07/15 00:43:52;;;;;;;;;;;21.80;99.90;;;;;;4983900;28;20024;-66
2023/07/15 00:46:38;;;;;;;;;;;21.80;99.90;;;;;;4987939;28;20422;-66
2023/07/15 00:49:11;;;;;;;;;;;21.70;99.90;;;;;;4981949;28;19956;-66
2023/07/15 00:51:40;;;;;;;;;;;21.70;99.90;;;;;;4984160;28;20430;-65
2023/07/15 00:54:09;;;;;;;;;;;21.60;99.90;;;;;;4980883;28;19960;-66
2023/07/15 00:56:37;;;;;;;;;;;21.70;99.90;;;;;;4980893;28;20335;-66
2023/07/15 00:59:05;;;;;;;;;;;21.60;99.90;;;;;;4997236;28;20006;-66
2023/07/15 01:01:34;;;;;;;;;;;21.80;99.90;;;;;;4991024;28;19960;-66
2023/07/15 01:04:02;;;;;;;;;;;21.70;99.90;;;;;;4992035;28;19957;-65
2023/07/15 01:06:33;;;;;;;;;;;21.60;99.90;;;;;;4988039;28;20047;-65
2023/07/15 01:09:03;;;;;;;;;;;21.60;99.90;;;;;;4983125;28;19963;-65
2023/07/15 01:11:32;;;;;;;;;;;21.60;99.90;;;;;;4984278;28;20374;-65
2023/07/15 01:13:59;;;;;;;;;;;21.60;99.90;;;;;;4981288;28;19956;-64
2023/07/15 01:16:28;;;;;;;;;;;21.70;99.90;;;;;;4982921;28;19963;-65
2023/07/15 01:18:57;;;;;;;;;;;21.60;99.90;;;;;;4980441;28;19964;-64
2023/07/15 01:21:26;;;;;;;;;;;21.40;99.90;;;;;;4980635;28;19959;-64
2023/07/15 01:23:55;;;;;;;;;;;21.30;99.90;;;;;;4972702;28;20375;-64
2023/07/15 01:26:22;;;;;;;;;;;21.40;99.90;;;;;;4974574;28;19952;-65
2023/07/15 01:28:50;;;;;;;;;;;21.40;99.90;;;;;;4989828;28;19963;-64
2023/07/15 01:31:18;;;;;;;;;;;21.50;99.90;;;;;;4989899;28;19952;-65
2023/07/15 01:33:47;;;;;;;;;;;21.50;99.90;;;;;;4992119;28;19990;-65
2023/07/15 01:36:15;;;;;;;;;;;21.50;99.90;;;;;;4990940;28;19959;-65
2023/07/15 01:38:43;;;;;;;;;;;21.50;99.90;;;;;;4988300;28;19960;-65
2023/07/15 01:41:12;;;;;;;;;;;21.60;99.90;;;;;;4989410;28;19952;-65
2023/07/15 01:43:42;;;;;;;;;;;21.50;99.90;;;;;;4990206;28;19956;-65
2023/07/15 01:46:10;;;;;;;;;;;21.40;99.90;;;;;;4987733;28;19963;-65
2023/07/15 01:48:39;;;;;;;;;;;21.40;99.90;;;;;;4986661;28;19960;-65
2023/07/15 01:51:06;;;;;;;;;;;21.20;99.90;;;;;;4988734;28;19956;-66
2023/07/15 01:53:34;;;;;;;;;;;21.20;99.90;;;;;;4990041;28;20006;-66
2023/07/15 01:56:02;;;;;;;;;;;21.40;99.90;;;;;;4990579;28;20335;-66
2023/07/15 01:58:31;;;;;;;;;;;21.40;99.90;;;;;;4987800;28;19956;-65
2023/07/15 02:00:59;;;;;;;;;;;21.40;99.90;;;;;;4988702;28;20407;-65
2023/07/15 02:03:27;;;;;;;;;;;21.40;99.90;;;;;;4984740;28;19956;-66
2023/07/15 02:05:55;;;;;;;;;;;21.40;99.90;;;;;;4987812;28;19921;-65
2023/07/15 02:08:23;;;;;;;;;;;21.40;99.90;;;;;;4987853;28;19952;-66
2023/07/15 02:10:51;;;;;;;;;;;21.50;99.90;;;;;;4987478;28;19952;-65
2023/07/15 02:13:18;;;;;;;;;;;21.40;99.90;;;;;;4974591;28;19956;-64
2023/07/15 02:15:48;;;;;;;;;;;21.30;99.90;;;;;;4973237;28;19964;-66
2023/07/15 02:18:15;;;;;;;;;;;21.30;99.90;;;;;;4972798;28;19960;-64
2023/07/15 02:20:43;;;;;;;;;;;21.40;99.90;;;;;;4972579;28;19922;-64
2023/07/15 02:23:11;;;;;;;;;;;21.30;99.90;;;;;;4974112;28;19925;-65
2023/07/15 02:25:39;;;;;;;;;;;21.40;99.90;;;;;;4980428;28;20860;-64
2023/07/15 02:28:07;;;;;;;;;;;21.40;99.90;;;;;;4990466;28;19959;-65
2023/07/15 02:30:35;;;;;;;;;;;21.50;99.90;;;;;;4988403;28;19922;-65
2023/07/15 02:33:06;;;;;;;;;;;21.40;99.90;;;;;;4991445;28;20180;-65
2023/07/15 02:35:34;;;;;;;;;;;21.40;99.90;;;;;;4990740;28;20055;-65
2023/07/15 02:38:02;;;;;;;;;;;21.30;99.90;;;;;;4990826;28;20003;-65
2023/07/15 02:40:31;;;;;;;;;;;21.30;99.90;;;;;;4994021;28;20307;-65
2023/07/15 02:42:58;;;;;;;;;;;21.30;99.90;;;;;;4991890;28;19991;-64
2023/07/15 02:45:27;;;;;;;;;;;21.20;99.90;;;;;;4993429;28;19959;-65
2023/07/15 02:47:54;;;;;;;;;;;21.30;99.90;;;;;;4992608;28;19925;-65
2023/07/15 02:50:23;;;;;;;;;;;21.40;99.90;;;;;;4989379;28;19951;-66
2023/07/15 02:52:51;;;;;;;;;;;21.50;99.90;;;;;;4992587;28;19956;-66
2023/07/15 02:55:19;;;;;;;;;;;21.50;99.90;;;;;;4993833;28;19959;-65
2023/07/15 02:57:54;;;;;;;;;;;21.40;99.90;;;;;;4993905;28;19986;-64
2023/07/15 03:00:22;;;;;;;;;;;21.30;99.90;;;;;;5030109;28;19955;-66
2023/07/15 03:02:51;;;;;;;;;;;21.30;99.90;;;;;;5030599;28;19951;-67
2023/07/15 03:05:19;;;;;;;;;;;21.40;99.90;;;;;;5031021;28;23099;-66
2023/07/15 03:07:49;;;;;;;;;;;21.50;99.90;;;;;;5031085;28;19951;-67
2023/07/15 03:10:18;;;;;;;;;;;21.40;99.90;;;;;;5031298;28;19959;-66
2023/07/15 03:12:48;;;;;;;;;;;21.40;99.90;;;;;;5032204;28;20017;-67
2023/07/15 03:15:16;;;;;;;;;;;21.30;99.90;;;;;;5031548;28;20611;-66
2023/07/15 03:17:44;;;;;;;;;;;21.40;99.90;;;;;;5039081;28;19967;-66
2023/07/15 03:20:15;;;;;;;;;;;21.40;99.90;;;;;;5035892;28;20306;-66
2023/07/15 03:22:42;;;;;;;;;;;21.30;99.90;;;;;;5037355;28;19951;-67
2023/07/15 03:25:12;;;;;;;;;;;21.40;99.90;;;;;;5030488;28;19951;-66
2023/07/15 03:27:41;;;;;;;;;;;21.40;99.90;;;;;;5032543;28;19955;-66
2023/07/15 03:30:09;;;;;;;;;;;21.50;99.90;;;;;;5032685;28;20017;-66
2023/07/15 03:32:37;;;;;;;;;;;21.50;99.90;;;;;;5031338;28;20399;-67
2023/07/15 03:35:06;;;;;;;;;;;21.50;99.90;;;;;;5031150;28;19921;-66
2023/07/15 03:37:34;;;;;;;;;;;21.50;99.90;;;;;;5029950;28;19928;-66
2023/07/15 03:40:03;;;;;;;;;;;21.50;99.90;;;;;;5030379;28;19932;-67
2023/07/15 03:42:32;;;;;;;;;;;21.60;99.90;;;;;;5030635;28;19924;-66
2023/07/15 03:45:00;;;;;;;;;;;21.50;99.90;;;;;;5031373;28;19921;-66
2023/07/15 03:47:28;;;;;;;;;;;21.50;99.90;;;;;;5031111;28;19921;-66
2023/07/15 03:49:56;;;;;;;;;;;21.50;99.90;;;;;;5030197;28;19987;-66
2023/07/15 03:52:24;;;;;;;;;;;21.60;99.90;;;;;;5029550;28;20378;-66
2023/07/15 03:54:51;;;;;;;;;;;21.80;99.90;;;;;;5030128;28;20611;-67
2023/07/15 03:57:19;;;;;;;;;;;21.80;99.90;;;;;;5030636;28;19967;-67
2023/07/15 03:59:48;;;;;;;;;;;21.70;99.90;;;;;;5031106;28;19924;-67
2023/07/15 04:02:17;;;;;;;;;;;21.80;99.90;;;;;;5029683;28;19925;-65
2023/07/15 04:04:46;;;;;;;;;;;21.90;99.90;;;;;;5030375;28;19956;-66
2023/07/15 04:07:14;;;;;;;;;;;21.90;99.90;;;;;;5030165;28;19921;-65
2023/07/15 04:09:42;;;;;;;;;;;21.80;99.90;;;;;;5032978;28;19921;-66
2023/07/15 04:12:10;;;;;;;;;;;21.80;99.90;;;;;;5033279;28;20303;-65
2023/07/15 04:14:37;;;;;;;;;;;21.90;99.90;;;;;;5032844;28;19975;-66
2023/07/15 04:17:07;;;;;;;;;;;22.00;99.90;;;;;;5031335;28;19929;-65
2023/07/15 04:19:35;;;;;;;;;;;22.00;99.90;;;;;;5030834;28;19987;-65
2023/07/15 04:22:03;;;;;;;;;;;22.00;99.90;;;;;;5031448;28;19932;-66
2023/07/15 04:24:31;;;;;;;;;;;22.00;99.90;;;;;;5029235;28;19936;-66
2023/07/15 04:26:58;;;;;;;;;;;22.00;99.90;;;;;;5031108;28;19921;-66
2023/07/15 04:29:26;;;;;;;;;;;22.00;99.90;;;;;;5031722;28;19921;-66
2023/07/15 04:31:54;;;;;;;;;;;22.10;99.90;;;;;;5029708;28;19920;-67
2023/07/15 04:34:23;;;;;;;;;;;22.10;99.90;;;;;;5031449;28;20306;-66
2023/07/15 04:36:52;;;;;;;;;;;22.10;99.90;;;;;;5032000;28;19921;-66
2023/07/15 04:39:20;;;;;;;;;;;22.20;99.90;;;;;;5029061;28;19925;-66
2023/07/15 04:41:48;;;;;;;;;;;22.20;99.90;;;;;;5031106;28;20359;-66
2023/07/15 04:44:16;;;;;;;;;;;22.30;99.90;;;;;;5029969;28;19979;-65
2023/07/15 04:46:43;;;;;;;;;;;22.40;99.90;;;;;;5028788;28;19921;-65
2023/07/15 04:49:12;;;;;;;;;;;22.50;99.90;;;;;;5028426;28;20392;-64
2023/07/15 04:51:41;;;;;;;;;;;22.60;99.90;;;;;;5031381;28;20411;-65
2023/07/15 04:54:09;;;;;;;;;;;22.70;99.90;;;;;;5030756;28;19921;-66
2023/07/15 04:56:37;;;;;;;;;;;22.70;99.90;;;;;;5031168;28;19920;-65
2023/07/15 04:59:05;;;;;;;;;;;22.70;99.90;;;;;;5030196;28;19925;-65
2023/07/15 05:01:33;;;;;;;;;;;22.80;99.90;;;;;;5030482;28;19921;-65
2023/07/15 05:04:01;;;;;;;;;;;22.70;99.90;;;;;;5026832;28;19983;-65
2023/07/15 05:06:30;;;;;;;;;;;22.60;99.90;;;;;;5027074;28;19925;-67
2023/07/15 05:08:59;;;;;;;;;;;22.60;99.90;;;;;;5028881;28;19927;-66
2023/07/15 05:11:27;;;;;;;;;;;22.60;99.90;;;;;;5028440;28;19927;-66
2023/07/15 05:13:55;;;;;;;;;;;22.60;99.90;;;;;;5028584;28;19928;-65
2023/07/15 05:16:22;;;;;;;;;;;22.70;99.90;;;;;;5030050;28;19990;-67
2023/07/15 05:18:50;;;;;;;;;;;22.60;99.90;;;;;;5030422;28;19928;-67
2023/07/15 05:21:18;;;;;;;;;;;22.50;99.90;;;;;;5027510;28;19948;-65
2023/07/15 05:23:46;;;;;;;;;;;22.50;99.90;;;;;;5027259;28;19929;-65
2023/07/15 05:26:15;;;;;;;;;;;22.40;99.90;;;;;;5028925;28;19925;-65
2023/07/15 05:28:42;;;;;;;;;;;22.40;99.90;;;;;;5028500;28;20629;-66
2023/07/15 05:31:10;;;;;;;;;;;22.30;99.90;;;;;;5030188;28;19921;-66
2023/07/15 05:33:38;;;;;;;;;;;22.40;99.90;;;;;;5028001;28;19925;-66
2023/07/15 05:36:07;;;;;;;;;;;22.40;99.90;;;;;;5029067;28;19941;-65
2023/07/15 05:38:40;;;;;;;;;;;22.40;99.90;;;;;;5028975;28;20354;-65
2023/07/15 05:41:08;;;;;;;;;;;22.40;99.90;;;;;;5026606;28;20012;-67
2023/07/15 05:43:38;;;;;;;;;;;22.50;99.90;;;;;;5027338;28;19921;-67
2023/07/15 05:46:05;;;;;;;;;;;22.60;99.90;;;;;;5028064;28;20285;-67
2023/07/15 05:48:33;;;;;;;;;;;22.70;99.90;;;;;;5025649;28;19944;-66
2023/07/15 05:51:01;;;;;;;;;;;22.80;99.90;;;;;;5028610;28;19925;-67
2023/07/15 05:53:29;;;;;;;;;;;22.90;99.90;;;;;;5027772;28;19925;-68
2023/07/15 05:55:56;;;;;;;;;;;23.00;99.90;;;;;;5029188;28;19921;-67
2023/07/15 05:58:26;;;;;;;;;;;23.10;99.90;;;;;;5027466;28;19971;-66
2023/07/15 06:00:55;;;;;;;;;;;23.20;99.90;;;;;;5028967;28;19926;-67
2023/07/15 06:03:25;;;;;;;;;;;23.20;99.90;;;;;;5027570;28;19929;-67
2023/07/15 06:05:53;;;;;;;;;;;23.20;99.90;;;;;;5027487;28;19927;-66
2023/07/15 06:08:21;;;;;;;;;;;23.10;99.90;;;;;;5027609;28;19991;-66
2023/07/15 06:10:51;;;;;;;;;;;23.00;99.90;;;;;;5028818;28;21088;-66
2023/07/15 06:13:18;;;;;;;;;;;23.00;99.90;;;;;;5028614;28;19925;-66
2023/07/15 06:15:47;;;;;;;;;;;23.10;99.90;;;;;;5029963;28;19932;-65
2023/07/15 06:18:16;;;;;;;;;;;23.20;99.90;;;;;;5026012;28;19929;-66
2023/07/15 06:20:46;;;;;;;;;;;23.40;99.90;;;;;;5029387;28;19964;-66
2023/07/15 06:23:14;;;;;;;;;;;23.50;99.90;;;;;;5027473;28;19933;-66
2023/07/15 06:25:42;;;;;;;;;;;23.60;99.90;;;;;;5028870;28;19987;-66
2023/07/15 06:28:10;;;;;;;;;;;23.70;99.90;;;;;;5029514;28;20395;-65
2023/07/15 06:30:38;;;;;;;;;;;23.80;99.90;;;;;;5028618;28;19934;-65
2023/07/15 06:33:05;;;;;;;;;;;23.90;99.90;;;;;;5026205;28;19925;-66
2023/07/15 06:35:34;;;;;;;;;;;24.00;99.90;;;;;;5027722;28;20287;-65
2023/07/15 06:38:02;;;;;;;;;;;24.10;99.90;;;;;;5027301;28;19933;-66
2023/07/15 06:40:30;;;;;;;;;;;24.30;99.90;;;;;;5029200;28;19925;-65
2023/07/15 06:42:58;;;;;;;;;;;24.40;99.90;;;;;;5027471;28;19933;-66
2023/07/15 06:45:32;;;;;;;;;;;24.40;99.90;;;;;;5028586;28;19929;-66
2023/07/15 06:48:00;;;;;;;;;;;24.50;99.90;;;;;;5022982;28;19925;-66
2023/07/15 06:50:28;;;;;;;;;;;24.60;99.90;;;;;;5028438;28;20387;-67
2023/07/15 06:52:57;;;;;;;;;;;24.80;99.90;;;;;;5028056;28;19979;-66
2023/07/15 06:55:25;;;;;;;;;;;25.00;99.90;;;;;;5027433;28;20004;-67
2023/07/15 06:57:53;;;;;;;;;;;25.20;99.90;;;;;;5026968;28;19925;-66
2023/07/15 07:00:22;;;;;;;;;;;25.30;99.90;;;;;;5029307;28;20455;-67
2023/07/15 07:02:50;;;;;;;;;;;25.50;99.90;;;;;;5027325;28;19929;-67
2023/07/15 07:05:19;;;;;;;;;;;25.60;99.90;;;;;;5031430;28;20587;-67
2023/07/15 07:07:47;;;;;;;;;;;25.70;99.90;;;;;;5030311;28;20347;-66
2023/07/15 07:10:16;;;;;;;;;;;25.70;99.90;;;;;;5030755;28;19925;-67
2023/07/15 07:12:44;;;;;;;;;;;25.70;99.90;;;;;;5032875;28;19926;-66
2023/07/15 07:15:11;;;;;;;;;;;25.60;99.90;;;;;;5037125;28;19979;-67
2023/07/15 07:17:39;;;;;;;;;;;25.50;99.90;;;;;;5034162;28;19932;-67
2023/07/15 07:20:08;;;;;;;;;;;25.60;99.90;;;;;;5034166;28;19925;-67
2023/07/15 07:22:36;;;;;;;;;;;25.70;99.90;;;;;;5033921;28;19929;-67
2023/07/15 07:25:04;;;;;;;;;;;25.70;99.90;;;;;;5039199;28;20008;-67
2023/07/15 07:27:33;;;;;;;;;;;25.80;99.90;;;;;;5038059;28;20579;-66
2023/07/15 07:30:01;;;;;;;;;;;25.80;99.90;;;;;;5033735;28;19925;-67
2023/07/15 07:32:29;;;;;;;;;;;25.80;99.90;;;;;;5036161;28;20020;-67
2023/07/15 07:34:58;;;;;;;;;;;26.00;99.90;;;;;;5035381;28;19935;-66
2023/07/15 07:37:26;;;;;;;;;;;26.30;99.90;;;;;;5041630;28;20412;-67
2023/07/15 07:39:53;;;;;;;;;;;26.40;99.90;;;;;;5037257;28;19931;-68
2023/07/15 07:42:21;;;;;;;;;;;26.60;99.90;;;;;;5034056;28;20362;-67
2023/07/15 07:44:50;;;;;;;;;;;26.60;99.90;;;;;;5036880;28;19932;-66
2023/07/15 07:47:18;;;;;;;;;;;26.60;99.90;;;;;;5037671;28;19925;-67
2023/07/15 07:49:46;;;;;;;;;;;26.50;99.90;;;;;;5035184;28;19939;-67
2023/07/15 07:52:14;;;;;;;;;;;26.30;99.90;;;;;;5031224;28;19926;-68
2023/07/15 07:54:42;;;;;;;;;;;26.30;99.90;;;;;;5029054;28;19956;-67
2023/07/15 07:57:10;;;;;;;;;;;26.20;99.90;;;;;;5031213;28;20293;-66
2023/07/15 07:59:37;;;;;;;;;;;26.20;99.90;;;;;;5029811;28;20419;-67
2023/07/15 08:02:07;;;;;;;;;;;26.20;99.90;;;;;;5028890;28;19929;-67
2023/07/15 08:04:35;;;;;;;;;;;26.20;99.90;;;;;;5028845;28;19930;-67
2023/07/15 08:07:02;;;;;;;;;;;26.20;99.90;;;;;;5028273;28;20015;-67
2023/07/15 08:09:30;;;;;;;;;;;26.20;99.90;;;;;;5032802;28;19986;-66
2023/07/15 08:11:58;;;;;;;;;;;26.20;99.90;;;;;;5033883;28;20415;-67
2023/07/15 08:14:26;;;;;;;;;;;26.30;99.90;;;;;;5033341;28;19929;-66
2023/07/15 08:16:54;;;;;;;;;;;26.40;99.90;;;;;;5031290;28;19925;-67
2023/07/15 08:19:23;;;;;;;;;;;26.50;99.90;;;;;;5030108;28;19928;-67
2023/07/15 08:21:51;;;;;;;;;;;26.60;99.90;;;;;;5035226;28;19931;-67
2023/07/15 08:24:19;;;;;;;;;;;26.70;99.90;;;;;;5039782;28;20354;-65
2023/07/15 08:26:47;;;;;;;;;;;26.90;99.90;;;;;;5033024;28;20280;-66
2023/07/15 08:29:14;;;;;;;;;;;27.10;99.90;;;;;;5040580;28;19932;-67
2023/07/15 08:31:42;;;;;;;;;;;27.30;99.90;;;;;;5033529;28;19929;-67
2023/07/15 08:34:10;;;;;;;;;;;27.50;99.90;;;;;;5027346;28;19929;-68
2023/07/15 08:36:39;;;;;;;;;;;27.70;99.90;;;;;;5032387;28;19930;-69
2023/07/15 08:39:07;;;;;;;;;;;27.90;99.90;;;;;;5033623;28;19925;-69
2023/07/15 08:41:35;;;;;;;;;;;28.00;99.90;;;;;;5032735;28;19925;-68
2023/07/15 08:44:03;;;;;;;;;;;27.70;99.90;;;;;;5041141;28;19925;-69
2023/07/15 08:46:31;;;;;;;;;;;27.60;99.90;;;;;;5031457;28;19932;-69
2023/07/15 08:49:00;;;;;;;;;;;27.50;99.90;;;;;;5034133;28;20351;-69
2023/07/15 08:51:30;;;;;;;;;;;27.40;99.90;;;;;;5032297;28;20380;-69
2023/07/15 08:54:00;;;;;;;;;;;27.30;99.90;;;;;;5027581;28;19929;-69
2023/07/15 08:56:28;;;;;;;;;;;27.40;99.90;;;;;;5032274;28;20280;-68
2023/07/15 08:58:56;;;;;;;;;;;27.40;99.90;;;;;;5032181;28;20307;-69
2023/07/15 09:01:24;;;;;;;;;;;27.50;99.90;;;;;;5032549;28;19925;-70
2023/07/15 09:03:52;;;;;;;;;;;27.50;99.90;;;;;;5032348;28;19925;-70
2023/07/15 09:06:21;;;;;;;;;;;27.60;99.90;;;;;;5032251;28;19971;-70
2023/07/15 09:08:50;;;;;;;;;;;27.70;99.90;;;;;;5032124;28;19926;-71
2023/07/15 09:11:19;;;;;;;;;;;27.90;99.90;;;;;;5032370;28;19936;-70
2023/07/15 09:13:47;;;;;;;;;;;28.10;99.90;;;;;;5032107;28;19932;-69
2023/07/15 09:16:15;;;;;;;;;;;28.20;99.90;;;;;;5031835;28;19925;-69
2023/07/15 09:18:43;;;;;;;;;;;28.30;99.90;;;;;;5032022;28;19925;-70
2023/07/15 09:21:12;;;;;;;;;;;28.30;99.90;;;;;;5032110;28;20388;-70
2023/07/15 09:23:42;;;;;;;;;;;28.20;99.90;;;;;;5031832;28;19929;-69
2023/07/15 09:26:10;;;;;;;;;;;28.30;99.90;;;;;;5031979;28;20412;-69
2023/07/15 09:28:40;;;;;;;;;;;28.10;99.90;;;;;;5031818;28;19932;-70
2023/07/15 09:31:08;;;;;;;;;;;28.10;99.90;;;;;;5032731;28;19925;-69
2023/07/15 09:33:38;;;;;;;;;;;28.10;99.90;;;;;;5031848;28;19991;-69
2023/07/15 09:36:06;;;;;;;;;;;27.90;99.70;;;;;;5031015;28;19968;-70
2023/07/15 09:38:35;;;;;;;;;;;27.80;99.90;;;;;;5031836;28;19925;-70
2023/07/15 09:41:04;;;;;;;;;;;27.60;99.90;;;;;;5031900;28;19925;-69
2023/07/15 09:43:46;;;;;;;;;;;27.30;99.90;;;;;;5031648;28;19931;-69
2023/07/15 09:46:15;;;;;;;;;;;27.30;99.90;;;;;;5024905;28;20424;-71
2023/07/15 09:48:44;;;;;;;;;;;27.10;99.90;;;;;;5031706;28;20300;-69
2023/07/15 09:51:13;;;;;;;;;;;27.10;99.90;;;;;;5031703;28;19925;-68
2023/07/15 09:53:43;;;;;;;;;;;27.00;99.90;;;;;;5031576;28;19933;-70
2023/07/15 09:56:11;;;;;;;;;;;26.90;99.90;;;;;;5031369;28;20400;-71
2023/07/15 09:58:42;;;;;;;;;;;26.90;99.90;;;;;;5031169;28;20302;-74
2023/07/15 10:01:15;;;;;;;;;;;26.90;99.90;;;;;;5031584;28;20729;-69
2023/07/15 10:03:44;;;;;;;;;;;26.80;99.90;;;;;;5031269;28;20458;-71
2023/07/15 10:06:12;;;;;;;;;;;26.70;99.90;;;;;;5031078;28;19925;-70
2023/07/15 10:08:40;;;;;;;;;;;26.80;99.90;;;;;;5031274;28;19964;-75
2023/07/15 10:11:09;;;;;;;;;;;26.90;99.90;;;;;;5031545;28;20388;-69
2023/07/15 10:13:37;;;;;;;;;;;26.90;99.90;;;;;;5031317;28;19931;-71
2023/07/15 10:16:05;;;;;;;;;;;26.90;99.90;;;;;;5030935;28;20399;-70
2023/07/15 10:18:34;;;;;;;;;;;26.90;99.90;;;;;;5031287;28;20306;-71
2023/07/15 10:21:03;;;;;;;;;;;27.00;99.90;;;;;;5031067;28;19938;-72
2023/07/15 10:23:32;;;;;;;;;;;27.10;99.90;;;;;;5031290;28;19925;-70
2023/07/15 10:26:02;;;;;;;;;;;27.10;99.90;;;;;;5030591;28;19925;-70
2023/07/15 10:28:31;;;;;;;;;;;27.00;99.90;;;;;;5031331;28;19937;-71
2023/07/15 10:31:09;;;;;;;;;;;27.00;99.90;;;;;;5031385;28;19932;-70
2023/07/15 10:33:51;;;;;;;;;;;27.10;99.90;;;;;;5031128;28;19929;-74
2023/07/15 10:36:34;;;;;;;;;;;27.20;99.90;;;;;;5024135;28;20296;-72
2023/07/15 10:39:09;;;;;;;;;;;27.20;99.90;;;;;;5031006;28;19932;-72
2023/07/15 10:41:40;;;;;;;;;;;27.40;99.90;;;;;;5031280;28;20375;-72
2023/07/15 10:44:20;;;;;;;;;;;27.60;99.90;;;;;;5030660;28;20446;-71
2023/07/15 10:46:49;;;;;;;;;;;27.80;99.90;;;;;;5033581;28;19929;-74
2023/07/15 10:49:18;;;;;;;;;;;28.00;99.90;;;;;;5034999;28;19932;-71
2023/07/15 10:51:47;;;;;;;;;;;28.00;99.90;;;;;;5034845;28;20040;-71
2023/07/15 10:54:18;;;;;;;;;;;28.30;99.90;;;;;;5034682;28;19925;-72
2023/07/15 10:56:46;;;;;;;;;;;28.60;99.90;;;;;;5034674;28;19925;-72
2023/07/15 10:59:14;;;;;;;;;;;28.90;99.90;;;;;;5034459;28;19925;-75
2023/07/15 11:01:42;;;;;;;;;;;29.10;99.90;;;;;;5034781;28;19929;-72
2023/07/15 11:04:10;;;;;;;;;;;29.10;99.90;;;;;;5032481;28;19936;-72
2023/07/15 11:06:39;;;;;;;;;;;28.90;99.90;;;;;;5034494;28;19925;-72
2023/07/15 11:09:14;;;;;;;;;;;28.80;99.90;;;;;;5032585;28;19929;-72
2023/07/15 11:11:42;;;;;;;;;;;28.60;99.90;;;;;;5031212;28;20289;-72
2023/07/15 11:14:22;;;;;;;;;;;28.40;99.90;;;;;;5033998;28;19975;-72
2023/07/15 11:16:51;;;;;;;;;;;28.20;99.90;;;;;;5034219;28;19925;-72
2023/07/15 11:19:19;;;;;;;;;;;27.80;99.90;;;;;;5034139;28;19929;-72
2023/07/15 11:21:48;;;;;;;;;;;27.70;99.90;;;;;;5034325;28;19954;-72
2023/07/15 11:24:16;;;;;;;;;;;27.60;99.90;;;;;;5026357;28;20434;-72
2023/07/15 11:26:44;;;;;;;;;;;27.60;99.90;;;;;;5034063;28;19929;-73
2023/07/15 11:29:15;;;;;;;;;;;27.70;99.90;;;;;;5030940;28;19952;-72
2023/07/15 11:31:43;;;;;;;;;;;27.80;99.90;;;;;;5033384;28;19929;-72
2023/07/15 11:34:11;;;;;;;;;;;27.90;99.90;;;;;;5033622;28;19925;-71
2023/07/15 11:36:39;;;;;;;;;;;27.80;99.90;;;;;;5033082;28;20422;-71
2023/07/15 11:39:08;;;;;;;;;;;27.80;99.90;;;;;;5038226;28;19926;-70
2023/07/15 11:41:37;;;;;;;;;;;27.70;99.90;;;;;;5035252;28;19932;-72
2023/07/15 11:44:09;;;;;;;;;;;27.60;99.90;;;;;;5033031;28;19925;-73
2023/07/15 11:46:37;;;;;;;;;;;27.50;99.90;;;;;;5036330;28;19929;-71
2023/07/15 11:49:05;;;;;;;;;;;27.30;99.90;;;;;;5039900;28;19925;-72
2023/07/15 11:51:33;;;;;;;;;;;27.20;99.90;;;;;;5019950;28;19933;-72
2023/07/15 11:54:02;;;;;;;;;;;27.20;99.90;;;;;;5021890;28;19935;-69
2023/07/15 11:56:37;;;;;;;;;;;27.20;99.90;;;;;;5029453;28;19975;-71
2023/07/15 11:59:06;;;;;;;;;;;27.20;99.90;;;;;;5032569;28;20023;-70
2023/07/15 12:01:34;;;;;;;;;;;27.40;99.90;;;;;;5034603;28;19925;-70
2023/07/15 12:04:02;;;;;;;;;;;27.60;99.90;;;;;;5033960;28;20406;-69
2023/07/15 12:06:30;;;;;;;;;;;27.80;99.90;;;;;;5033289;28;19953;-65
2023/07/15 12:09:05;;;;;;;;;;;28.10;99.90;;;;;;5026921;28;19979;-68
2023/07/15 12:11:34;;;;;;;;;;;28.30;99.90;;;;;;5026164;28;20858;-68
2023/07/15 12:14:04;;;;;;;;;;;28.50;99.90;;;;;;5024243;28;19944;-67
2023/07/15 12:16:32;;;;;;;;;;;28.50;99.90;;;;;;5022160;28;20014;-68
2023/07/15 12:19:00;;;;;;;;;;;28.50;99.90;;;;;;5022807;28;20043;-69
2023/07/15 12:21:28;;;;;;;;;;;28.40;99.90;;;;;;5025213;28;20342;-68
2023/07/15 12:23:57;;;;;;;;;;;28.20;99.90;;;;;;5024066;28;20729;-71
2023/07/15 12:26:25;;;;;;;;;;;28.30;99.90;;;;;;5027426;28;19978;-68
2023/07/15 12:28:52;;;;;;;;;;;28.30;99.90;;;;;;5025687;28;19930;-69
2023/07/15 12:31:22;;;;;;;;;;;28.40;99.90;;;;;;5024447;28;20366;-71
2023/07/15 12:33:50;;;;;;;;;;;28.60;99.90;;;;;;5027307;28;19933;-69
2023/07/15 12:36:18;;;;;;;;;;;29.20;99.90;;;;;;5028327;28;19937;-68
2023/07/15 12:38:46;;;;;;;;;;;29.90;99.90;;;;;;5025376;28;19937;-68
2023/07/15 12:41:14;;;;;;;;;;;30.40;99.90;;;;;;5025757;28;20404;-71
2023/07/15 12:43:42;;;;;;;;;;;30.90;99.90;;;;;;5026781;28;19934;-70
2023/07/15 12:46:10;;;;;;;;;;;30.90;99.90;;;;;;5023611;28;19933;-68
2023/07/15 12:48:39;;;;;;;;;;;30.70;99.80;;;;;;5021768;28;20227;-68
2023/07/15 12:51:07;;;;;;;;;;;30.40;99.80;;;;;;5025583;28;19940;-69
2023/07/15 12:53:37;;;;;;;;;;;29.90;99.90;;;;;;5028454;28;19944;-69
2023/07/15 12:56:11;;;;;;;;;;;29.90;99.90;;;;;;5024970;28;19941;-69
2023/07/15 12:58:39;;;;;;;;;;;29.40;99.90;;;;;;5023538;28;19933;-68
2023/07/15 13:01:07;;;;;;;;;;;29.10;99.90;;;;;;5024041;28;19940;-68
2023/07/15 13:03:34;;;;;;;;;;;28.80;99.90;;;;;;5025214;28;19933;-68
2023/07/15 13:06:04;;;;;;;;;;;28.50;99.90;;;;;;5025964;28;19962;-68
2023/07/15 13:08:32;;;;;;;;;;;28.40;99.90;;;;;;5026167;28;19985;-68
2023/07/15 13:10:59;;;;;;;;;;;28.40;99.90;;;;;;5024200;28;20778;-67
2023/07/15 13:13:27;;;;;;;;;;;28.30;99.90;;;;;;5025873;28;19936;-68
2023/07/15 13:15:56;;;;;;;;;;;28.10;99.90;;;;;;5026021;28;19936;-68
2023/07/15 13:18:24;;;;;;;;;;;28.10;99.90;;;;;;5022060;28;19983;-71
2023/07/15 13:20:52;;;;;;;;;;;28.20;99.90;;;;;;5025016;28;20008;-69
2023/07/15 13:23:21;;;;;;;;;;;28.30;99.90;;;;;;5025859;28;19981;-69
2023/07/15 13:25:49;;;;;;;;;;;28.40;99.90;;;;;;5025017;28;19933;-68
2023/07/15 13:28:16;;;;;;;;;;;28.30;99.90;;;;;;5024759;28;19937;-72
2023/07/15 13:30:46;;;;;;;;;;;28.10;99.90;;;;;;5025315;28;19933;-67
2023/07/15 13:33:14;;;;;;;;;;;28.00;99.90;;;;;;5024025;28;19933;-72
2023/07/15 13:35:42;;;;;;;;;;;27.70;99.90;;;;;;5027722;28;19929;-69
2023/07/15 13:38:10;;;;;;;;;;;27.50;99.90;;;;;;5023834;28;19979;-69
2023/07/15 13:40:39;;;;;;;;;;;27.60;99.90;;;;;;5024497;28;19933;-68
2023/07/15 13:43:06;;;;;;;;;;;27.40;99.90;;;;;;5025384;28;19960;-67
2023/07/15 13:45:34;;;;;;;;;;;27.20;99.90;;;;;;5025532;28;19933;-68
2023/07/15 13:48:02;;;;;;;;;;;27.00;99.90;;;;;;5025870;28;20014;-68
2023/07/15 13:50:30;;;;;;;;;;;26.90;99.90;;;;;;5026719;28;19933;-67
2023/07/15 13:52:58;;;;;;;;;;;26.70;99.90;;;;;;5022905;28;19933;-68
2023/07/15 13:55:25;;;;;;;;;;;26.60;99.90;;;;;;5022666;28;20008;-69
2023/07/15 13:57:55;;;;;;;;;;;26.40;99.90;;;;;;5023788;28;19935;-72
2023/07/15 14:00:22;;;;;;;;;;;26.20;99.90;;;;;;5020375;28;20386;-69
2023/07/15 14:02:51;;;;;;;;;;;26.10;99.90;;;;;;5021666;28;20020;-69
2023/07/15 14:05:19;;;;;;;;;;;25.90;99.90;;;;;;5019718;28;19937;-68
2023/07/15 14:07:47;;;;;;;;;;;25.60;99.90;;;;;;5022825;28;19937;-71
2023/07/15 14:10:15;;;;;;;;;;;25.40;99.90;;;;;;5018159;28;19940;-68
2023/07/15 14:12:43;;;;;;;;;;;25.10;99.90;;;;;;5020147;28;20658;-68
2023/07/15 14:15:12;;;;;;;;;;;24.70;99.90;;;;;;5021685;28;19933;-71
2023/07/15 14:17:40;;;;;;;;;;;24.50;99.90;;;;;;5021395;28;19940;-69
2023/07/15 14:20:08;;;;;;;;;;;24.30;99.90;;;;;;5017894;28;19933;-70
2023/07/15 14:22:36;;;;;;;;;;;24.10;99.90;;;;;;5019735;28;19952;-67
2023/07/15 14:25:16;;;;;;;;;;;24.00;99.90;;;;;;5020276;28;20046;-71